createdAt,value
2018-12-26T00:08:08.098Z,0.93
2018-12-26T00:19:54.175Z,1.80
2018-12-26T00:34:31.443Z,2.07
2018-12-26T00:37:40.225Z,0.97
2018-12-26T00:43:05.143Z,0.73
2018-12-26T00:45:34.560Z,1.13
2018-12-26T00:48:04.064Z,0.67
2018-12-26T00:51:13.280Z,0.63
2018-12-26T00:53:42.711Z,0.73
2018-12-26T00:56:12.123Z,0.77
2018-12-26T00:59:21.053Z,0.67
2018-12-26T01:05:05.026Z,0.20
2018-12-26T01:13:18.321Z,0.20
2018-12-26T01:16:27.254Z,1.37
2018-12-26T01:19:36.546Z,0.10
2018-12-26T01:27:55.594Z,0.10
2018-12-26T01:31:04.393Z,0.30
2018-12-26T01:39:38.181Z,0.00
2018-12-26T01:42:46.984Z,1.00
2018-12-26T01:45:16.818Z,0.57
2018-12-26T01:47:46.495Z,0.67
2018-12-26T01:50:55.376Z,0.10
2018-12-26T01:59:40.820Z,0.23
2018-12-26T02:05:19.540Z,0.87
2018-12-26T02:22:52.028Z,0.30
2018-12-26T02:25:21.634Z,1.10
2018-12-26T02:27:51.057Z,0.23
2018-12-26T02:30:20.468Z,0.73
2018-12-26T02:32:50.253Z,0.20
2018-12-26T02:38:15.151Z,0.40
2018-12-26T02:50:03.588Z,0.77
2018-12-26T02:53:12.637Z,2.60
2018-12-26T02:55:42.963Z,1.40
2018-12-26T03:01:28.367Z,1.03
2018-12-26T03:12:57.906Z,0.40
2018-12-26T03:15:27.495Z,0.77
2018-12-26T03:18:36.448Z,1.27
2018-12-26T03:24:07.583Z,0.70
2018-12-26T03:26:37.246Z,2.20
2018-12-26T03:29:46.950Z,3.20
2018-12-26T03:35:18.462Z,0.73
2018-12-26T03:37:48.320Z,1.43
2018-12-26T03:40:36.813Z,0.77
2018-12-26T03:52:33.811Z,0.77
2018-12-26T03:55:22.448Z,1.30
2018-12-26T04:01:26.173Z,0.90
2018-12-26T04:07:10.735Z,0.97
2018-12-26T04:09:40.593Z,0.87
2018-12-26T04:12:49.537Z,0.40
2018-12-26T04:18:20.577Z,2.17
2018-12-26T04:21:29.315Z,1.80
2018-12-26T04:24:10.388Z,0.97
2018-12-26T04:32:43.782Z,1.80
2018-12-26T04:35:13.198Z,0.43
2018-12-26T04:37:42.994Z,1.80
2018-12-26T04:40:12.480Z,0.77
2018-12-26T04:43:00.997Z,2.97
2018-12-26T04:46:10.117Z,1.37
2018-12-26T04:54:42.123Z,1.70
2018-12-26T05:00:26.141Z,1.23
2018-12-26T05:02:56.106Z,0.60
2018-12-26T05:08:59.767Z,0.83
2018-12-26T05:17:44.963Z,1.70
2018-12-26T05:20:14.498Z,1.37
2018-12-26T05:23:23.449Z,0.67
2018-12-26T05:26:05.200Z,1.50
2018-12-26T05:29:14.243Z,0.77
2018-12-26T05:35:09.581Z,0.57
2018-12-26T05:37:39.100Z,1.47
2018-12-26T05:40:47.909Z,0.93
2018-12-26T05:49:52.428Z,0.50
2018-12-26T05:52:21.802Z,0.90
2018-12-26T05:54:51.216Z,1.40
2018-12-26T05:57:20.791Z,1.03
2018-12-26T06:02:58.894Z,1.10
2018-12-26T06:06:07.779Z,1.03
2018-12-26T06:11:45.288Z,1.90
2018-12-26T06:23:23.572Z,1.27
2018-12-26T06:28:43.940Z,1.77
2018-12-26T06:34:15.158Z,2.37
2018-12-26T06:42:49.275Z,1.77
2018-12-26T06:51:13.594Z,0.40
2018-12-26T06:54:22.796Z,2.00
2018-12-26T06:56:52.532Z,0.67
2018-12-26T07:05:56.521Z,0.70
2018-12-26T07:14:29.330Z,0.70
2018-12-26T07:17:38.234Z,0.30
2018-12-26T07:20:19.571Z,0.67
2018-12-26T07:22:49.091Z,1.90
2018-12-26T07:25:37.559Z,1.93
2018-12-26T07:28:09.264Z,0.90
2018-12-26T07:30:39.687Z,0.57
2018-12-26T07:33:09.262Z,0.47
2018-12-26T07:35:38.711Z,2.47
2018-12-26T07:38:47.584Z,0.73
2018-12-26T07:44:31.928Z,0.73
2018-12-26T07:47:40.973Z,0.57
2018-12-26T07:50:10.496Z,0.40
2018-12-26T07:52:40.022Z,0.83
2018-12-26T07:55:29.137Z,0.50
2018-12-26T08:00:50.954Z,0.87
2018-12-26T08:06:35.294Z,1.03
2018-12-26T08:09:24.281Z,1.30
2018-12-26T08:17:56.057Z,1.50
2018-12-26T08:20:25.564Z,0.70
2018-12-26T08:23:34.289Z,2.23
2018-12-26T08:26:03.850Z,0.90
2018-12-26T08:28:33.611Z,3.50
2018-12-26T08:31:22.471Z,1.50
2018-12-26T08:36:53.192Z,2.40
2018-12-26T08:39:22.737Z,2.60
2018-12-26T08:45:26.730Z,1.37
2018-12-26T08:48:15.246Z,1.57
2018-12-26T08:51:24.288Z,2.13
2018-12-26T08:57:09.180Z,3.43
2018-12-26T08:59:38.832Z,1.80
2018-12-26T09:02:48.024Z,3.20
2018-12-26T09:08:18.972Z,3.03
2018-12-26T09:10:48.566Z,1.17
2018-12-26T09:13:18.023Z,2.40
2018-12-26T09:16:26.895Z,2.33
2018-12-26T09:22:05.805Z,4.70
2018-12-26T09:24:35.184Z,2.40
2018-12-26T09:27:45.111Z,3.10
2018-12-26T09:36:17.482Z,5.87
2018-12-26T09:42:54.983Z,3.77
2018-12-26T09:51:38.201Z,2.50
2018-12-26T09:57:32.786Z,5.07
2018-12-26T10:00:02.247Z,1.40
2018-12-26T10:06:06.373Z,2.20
2018-12-26T10:11:50.838Z,2.10
2018-12-26T10:14:20.297Z,2.73
2018-12-26T10:16:49.677Z,1.80
2018-12-26T10:19:19.120Z,1.73
2018-12-26T10:21:48.546Z,3.47
2018-12-26T10:24:18.582Z,3.30
2018-12-26T10:26:48.153Z,2.67
2018-12-26T10:29:17.560Z,3.17
2018-12-26T10:31:46.933Z,4.20
2018-12-26T10:34:16.370Z,4.57
2018-12-26T10:36:45.948Z,4.63
2018-12-26T10:39:15.372Z,3.37
2018-12-26T10:41:44.894Z,3.70
2018-12-26T10:44:14.272Z,2.40
2018-12-26T10:47:23.069Z,5.37
2018-12-26T10:53:07.260Z,6.07
2018-12-26T10:56:16.172Z,1.73
2018-12-26T10:59:24.966Z,5.17
2018-12-26T11:05:29.347Z,2.10
2018-12-26T11:11:06.411Z,3.53
2018-12-26T11:13:35.818Z,4.43
2018-12-26T11:16:05.249Z,3.67
2018-12-26T11:18:34.682Z,4.27
2018-12-26T11:21:04.103Z,2.87
2018-12-26T11:23:33.485Z,4.60
2018-12-26T11:26:03.013Z,4.87
2018-12-26T11:28:32.466Z,6.07
2018-12-26T11:31:01.905Z,3.43
2018-12-26T11:33:31.359Z,4.27
2018-12-26T11:36:00.713Z,4.77
2018-12-26T11:38:30.160Z,2.30
2018-12-26T11:41:00.597Z,3.90
2018-12-26T11:49:22.489Z,3.03
2018-12-26T11:51:52.374Z,2.53
2018-12-26T11:54:21.905Z,4.83
2018-12-26T11:56:51.346Z,6.23
2018-12-26T11:59:27.151Z,3.57
2018-12-26T12:01:52.042Z,3.47
2018-12-26T12:04:21.557Z,6.93
2018-12-26T12:06:51.131Z,5.33
2018-12-26T12:09:20.699Z,4.57
2018-12-26T12:11:50.191Z,5.70
2018-12-26T12:14:19.583Z,3.10
2018-12-26T12:16:49.279Z,1.83
2018-12-26T12:19:18.726Z,4.27
2018-12-26T12:21:48.210Z,10.33
2018-12-26T12:24:17.642Z,3.50
2018-12-26T12:26:47.134Z,8.60
2018-12-26T12:29:16.601Z,3.77
2018-12-26T12:31:45.990Z,3.67
2018-12-26T12:34:16.390Z,2.40
2018-12-26T12:36:45.879Z,6.30
2018-12-26T12:39:15.340Z,4.53
2018-12-26T12:41:44.781Z,4.77
2018-12-26T12:44:14.313Z,3.70
2018-12-26T12:46:43.905Z,3.23
2018-12-26T12:49:14.131Z,6.17
2018-12-26T12:51:43.514Z,8.00
2018-12-26T12:54:12.944Z,2.13
2018-12-26T12:56:42.564Z,4.63
2018-12-26T12:59:12.029Z,4.10
2018-12-26T13:01:41.722Z,2.97
2018-12-26T13:04:11.095Z,10.13
2018-12-26T13:06:40.516Z,3.67
2018-12-26T13:09:09.954Z,3.07
2018-12-26T13:11:39.400Z,5.57
2018-12-26T13:14:08.906Z,6.33
2018-12-26T13:16:38.345Z,3.90
2018-12-26T13:19:07.748Z,3.53
2018-12-26T13:21:37.159Z,9.47
2018-12-26T13:24:45.966Z,5.60
2018-12-26T13:30:30.451Z,7.43
2018-12-26T13:32:59.834Z,4.63
2018-12-26T13:35:29.304Z,7.60
2018-12-26T13:37:58.756Z,3.90
2018-12-26T13:40:28.208Z,5.90
2018-12-26T13:42:57.666Z,4.90
2018-12-26T13:45:27.498Z,5.63
2018-12-26T13:47:57.278Z,5.87
2018-12-26T13:50:26.721Z,6.57
2018-12-26T13:52:56.183Z,8.07
2018-12-26T13:55:25.840Z,7.57
2018-12-26T13:57:55.220Z,4.27
2018-12-26T14:00:24.670Z,7.70
2018-12-26T14:02:54.413Z,9.40
2018-12-26T14:05:24.002Z,10.30
2018-12-26T14:07:53.985Z,9.73
2018-12-26T14:10:23.504Z,7.50
2018-12-26T14:19:01.316Z,10.13
2018-12-26T14:21:49.862Z,5.73
2018-12-26T14:24:59.946Z,5.23
2018-12-26T14:30:44.451Z,10.77
2018-12-26T14:33:13.999Z,8.90
2018-12-26T14:35:51.665Z,5.10
2018-12-26T14:39:00.640Z,5.10
2018-12-26T14:44:44.540Z,9.10
2018-12-26T14:50:26.387Z,7.57
2018-12-26T14:52:56.186Z,11.00
2018-12-26T14:56:04.972Z,7.53
2018-12-26T15:01:36.995Z,8.00
2018-12-26T15:04:06.513Z,5.53
2018-12-26T15:06:36.433Z,8.13
2018-12-26T15:09:08.129Z,10.63
2018-12-26T15:14:40.139Z,14.80
2018-12-26T15:17:49.112Z,11.07
2018-12-26T15:40:34.284Z,6.90
2018-12-26T15:43:43.071Z,9.10
2018-12-26T15:49:26.759Z,5.13
2018-12-26T15:57:58.989Z,10.37
2018-12-26T16:06:33.226Z,6.40
2018-12-26T16:12:12.077Z,11.60
2018-12-26T16:14:41.636Z,9.37
2018-12-26T16:17:11.048Z,10.13
2018-12-26T16:22:35.739Z,6.73
2018-12-26T16:25:05.524Z,12.57
2018-12-26T16:28:14.731Z,9.43
2018-12-26T16:30:46.243Z,7.40
2018-12-26T16:33:55.541Z,5.07
2018-12-26T16:36:25.670Z,5.87
2018-12-26T16:39:35.840Z,5.67
2018-12-26T16:42:06.352Z,9.87
2018-12-26T16:45:15.256Z,4.43
2018-12-26T16:47:45.637Z,10.07
2018-12-26T16:50:34.491Z,8.63
2018-12-26T16:56:14.130Z,4.77
2018-12-26T16:58:43.589Z,7.97
2018-12-26T17:09:39.500Z,12.27
2018-12-26T17:12:48.373Z,8.07
2018-12-26T17:15:29.800Z,6.33
2018-12-26T17:21:08.065Z,7.87
2018-12-26T17:23:56.395Z,7.27
2018-12-26T17:26:37.817Z,6.77
2018-12-26T17:32:28.864Z,7.00
2018-12-26T17:34:58.593Z,8.03
2018-12-26T17:38:07.320Z,8.53
2018-12-26T17:47:03.373Z,11.43
2018-12-26T17:49:32.871Z,9.53
2018-12-26T17:52:41.789Z,8.13
2018-12-26T17:55:49.643Z,7.43
2018-12-26T17:58:58.632Z,7.83
2018-12-26T18:01:50.396Z,7.53
2018-12-26T18:07:32.317Z,5.87
2018-12-26T18:13:09.585Z,6.37
2018-12-26T18:18:53.955Z,6.53
2018-12-26T18:21:23.518Z,4.80
2018-12-26T18:24:33.237Z,5.77
2018-12-26T18:30:17.787Z,8.23
2018-12-26T18:42:04.344Z,7.57
2018-12-26T18:44:35.460Z,8.23
2018-12-26T18:47:44.186Z,9.27
2018-12-26T18:50:53.591Z,6.77
2018-12-26T18:53:43.866Z,7.53
2018-12-26T18:56:13.464Z,9.23
2018-12-26T18:58:43.169Z,4.73
2018-12-26T19:01:52.228Z,8.97
2018-12-26T19:04:33.302Z,9.00
2018-12-26T19:10:10.153Z,7.93
2018-12-26T19:12:41.040Z,8.80
2018-12-26T19:15:51.218Z,7.33
2018-12-26T19:18:20.905Z,9.00
2018-12-26T19:20:50.512Z,7.23
2018-12-26T19:23:59.722Z,7.63
2018-12-26T19:29:38.780Z,5.63
2018-12-26T19:32:47.659Z,5.87
2018-12-26T19:38:23.185Z,7.93
2018-12-26T19:44:08.579Z,10.50
2018-12-26T19:47:17.676Z,8.00
2018-12-26T19:50:26.506Z,6.00
2018-12-26T19:52:56.497Z,7.43
2018-12-26T19:55:45.780Z,9.00
2018-12-26T20:10:40.718Z,6.10
2018-12-26T20:13:10.615Z,4.67
2018-12-26T20:16:19.900Z,11.90
2018-12-26T20:25:14.870Z,7.00
2018-12-26T20:27:44.757Z,9.40
2018-12-26T20:30:53.910Z,9.67
2018-12-26T20:33:23.773Z,6.10
2018-12-26T20:36:32.941Z,3.93
2018-12-26T20:42:28.633Z,5.40
2018-12-26T20:48:23.229Z,6.70
2018-12-26T20:57:11.200Z,5.67
2018-12-26T20:59:41.362Z,10.57
2018-12-26T21:02:50.344Z,9.27
2018-12-26T21:05:31.951Z,7.77
2018-12-26T21:08:41.057Z,7.23
2018-12-26T21:14:25.091Z,5.93
2018-12-26T21:23:10.348Z,6.53
2018-12-26T21:34:58.354Z,5.40
2018-12-26T21:38:08.214Z,7.47
2018-12-26T21:41:17.863Z,7.77
2018-12-26T21:47:02.249Z,6.37
2018-12-26T21:50:10.910Z,4.57
2018-12-26T21:53:19.941Z,7.47
2018-12-26T21:59:05.031Z,6.30
2018-12-26T22:02:13.941Z,6.17
2018-12-26T22:04:45.810Z,4.90
2018-12-26T22:10:24.410Z,5.10
2018-12-26T22:13:33.215Z,4.77
2018-12-26T22:16:42.378Z,5.93
2018-12-26T22:19:14.694Z,7.17
2018-12-26T22:22:03.985Z,7.10
2018-12-26T22:24:45.077Z,7.03
2018-12-26T22:27:54.046Z,5.03
2018-12-26T22:30:23.464Z,7.23
2018-12-26T22:32:52.881Z,7.13
2018-12-26T22:35:22.341Z,5.37
2018-12-26T22:37:52.179Z,9.03
2018-12-26T22:41:01.330Z,6.30
2018-12-26T22:43:30.938Z,6.00
2018-12-26T22:46:40.780Z,3.90
2018-12-26T22:55:26.163Z,6.10
2018-12-26T22:57:55.840Z,7.03
2018-12-26T23:01:04.723Z,4.73
2018-12-26T23:09:41.329Z,7.87
2018-12-26T23:15:20.537Z,5.47
2018-12-26T23:17:50.010Z,4.37
2018-12-26T23:20:58.837Z,3.97
2018-12-26T23:23:47.206Z,4.33
2018-12-26T23:29:44.982Z,9.57
2018-12-26T23:33:14.522Z,4.67
2018-12-26T23:36:23.271Z,5.60
2018-12-26T23:39:32.090Z,7.30
2018-12-26T23:42:01.712Z,7.73
2018-12-26T23:44:31.203Z,4.77
2018-12-26T23:49:56.403Z,7.87
2018-12-26T23:52:26.053Z,5.30
2018-12-26T23:55:34.843Z,2.63
2018-12-26T23:58:04.395Z,4.07
